To NAV CANADA Home Page Login to a new session Search on AWWS site Feedback and Comments Disclaimer Vers la page française équivalente Tips FAQ What's new on the site To the Forecasts and Observations / NOTAM section To "File a Flight Plan" website Publications and other links Update of the User's profile FIC Telephone Numbers My Weather Data Folder Route Weather Data Regional Weather Data Local Weather Data To the Forecasts and Observations / NOTAM section
Request Generated 08/22/2017 at 01:35:46 UTC . Weather information available at that time is displayed.

METAR/TAF

WINNIPEG/JAMES ARMSTRONG RICHARDSON INTL/MB    

METAR CYWG 220100Z 23005KT 220V300 15SM FEW030 FEW080 SCT270 17/12
A2993 RMK SC1AC1CI3 SC TR CB TOPS DSNT NE AND S SLP140 DENSITY ALT
1200FT=
METAR CYWG 220000Z 30006KT 15SM FEW030 FEW080 SCT270 17/12 A2994 RMK
SC1AC1CI3 SC TR CB TOPS DSNT SW AND N SLP142 DENSITY ALT 1300FT=
METAR CYWG 212300Z VRB02KT 15SM FEW030 FEW080 19/12 A2992 RMK SC1AC1
SC TR SLP137 DENSITY ALT 1400FT=

TAF CYWG 212338Z 2200/2224 VRB03KT P6SM FEW040 SCT080
FM220100 30015G25KT P6SM SCT060 TEMPO 2201/2203 P6SM -SHRA VCTS
SCT040CB BKN060
FM220300 32010KT P6SM SCT070
FM221800 33015G25KT P6SM VCSH BKN050
RMK NXT FCST BY 220600Z=
Your time UTC time
Weather data provided by Environment Canada and NAV CANADA